createdAt,value
2022-08-14T00:02:01.427Z,44.92
2022-08-14T00:05:05.534Z,45.43
2022-08-14T00:08:14.484Z,45.32
2022-08-14T00:11:17.000Z,46.58
2022-08-14T00:14:18.705Z,46.48
2022-08-14T00:17:20.130Z,46.81
2022-08-14T00:20:30.452Z,47.08
2022-08-14T00:23:37.441Z,47.29
2022-08-14T00:26:39.910Z,48.04
2022-08-14T00:29:42.891Z,48.16
2022-08-14T00:32:56.394Z,48.02
2022-08-14T00:36:35.628Z,49.05
2022-08-14T00:39:20.118Z,49.14
2022-08-14T00:42:52.467Z,49.00
2022-08-14T00:45:52.763Z,49.19
2022-08-14T00:48:54.403Z,49.19
2022-08-14T00:52:00.335Z,49.43
2022-08-14T00:55:02.670Z,50.06
2022-08-14T00:58:32.612Z,50.39
2022-08-14T01:01:35.919Z,50.00
2022-08-14T01:04:54.425Z,50.45
2022-08-14T01:07:58.408Z,50.49
2022-08-14T01:11:00.060Z,51.16
2022-08-14T01:14:18.290Z,51.40
2022-08-14T01:17:49.250Z,51.47
2022-08-14T01:21:03.782Z,51.82
2022-08-14T01:24:10.896Z,52.14
2022-08-14T01:27:19.755Z,52.77
2022-08-14T01:30:24.721Z,52.45
2022-08-14T01:33:30.892Z,52.78
2022-08-14T01:36:54.012Z,52.44
2022-08-14T01:39:55.464Z,53.10
2022-08-14T01:42:57.100Z,53.09
2022-08-14T01:46:06.719Z,53.03
2022-08-14T01:49:11.729Z,53.65
2022-08-14T01:52:34.012Z,53.44
2022-08-14T01:55:38.760Z,53.15
2022-08-14T01:58:57.595Z,53.92
2022-08-14T02:02:03.858Z,53.83
2022-08-14T02:05:05.696Z,53.37
2022-08-14T02:08:10.048Z,53.67
2022-08-14T02:11:24.371Z,54.24
2022-08-14T02:14:31.658Z,54.30
2022-08-14T02:17:33.743Z,54.35
2022-08-14T02:20:36.068Z,54.26
2022-08-14T02:23:37.860Z,54.95
2022-08-14T02:26:58.354Z,54.35
2022-08-14T02:30:09.468Z,55.54
2022-08-14T02:33:15.182Z,55.05
2022-08-14T02:37:03.510Z,55.22
2022-08-14T02:39:42.746Z,55.72
2022-08-14T02:42:54.996Z,56.18
2022-08-14T02:46:00.071Z,55.28
2022-08-14T02:49:06.165Z,55.83
2022-08-14T02:52:26.793Z,56.83
2022-08-14T02:55:32.915Z,56.26
2022-08-14T02:58:38.548Z,56.28
2022-08-14T03:01:50.861Z,56.21
2022-08-14T03:04:55.966Z,56.60
2022-08-14T03:08:15.881Z,57.29
2022-08-14T03:11:18.629Z,56.55
2022-08-14T03:14:22.161Z,57.33
2022-08-14T03:17:24.568Z,57.76
2022-08-14T03:20:28.597Z,57.35
2022-08-14T03:23:34.437Z,58.07
2022-08-14T03:26:44.872Z,57.83
2022-08-14T03:29:46.357Z,57.88
2022-08-14T03:32:49.737Z,58.39
2022-08-14T03:36:05.677Z,59.16
2022-08-14T03:39:22.114Z,59.46
2022-08-14T03:42:25.187Z,60.13
2022-08-14T03:45:47.908Z,60.09
2022-08-14T03:48:50.193Z,58.92
2022-08-14T03:51:55.852Z,59.24
2022-08-14T03:54:59.888Z,59.27
2022-08-14T03:58:01.303Z,59.16
2022-08-14T04:01:02.738Z,59.13
2022-08-14T04:04:06.123Z,59.42
2022-08-14T04:07:10.712Z,59.24
2022-08-14T04:10:12.771Z,59.32
2022-08-14T04:13:19.147Z,59.55
2022-08-14T04:16:25.317Z,59.44
2022-08-14T04:19:36.458Z,58.81
2022-08-14T04:22:43.449Z,58.48
2022-08-14T04:25:45.833Z,58.08
2022-08-14T04:29:07.269Z,58.13
2022-08-14T04:33:00.412Z,57.70
2022-08-14T04:35:55.248Z,57.36
2022-08-14T04:39:17.245Z,58.60
2022-08-14T04:42:37.321Z,59.29
2022-08-14T04:45:42.814Z,58.60
2022-08-14T04:48:51.404Z,59.27
2022-08-14T04:51:57.655Z,59.49
2022-08-14T04:55:04.933Z,61.12
2022-08-14T04:58:07.025Z,61.88
2022-08-14T05:01:25.953Z,61.42
2022-08-14T05:04:27.394Z,62.19
2022-08-14T05:07:53.784Z,62.10
2022-08-14T05:10:55.907Z,62.27
2022-08-14T05:14:16.114Z,62.48
2022-08-14T05:17:18.829Z,62.12
2022-08-14T05:21:55.938Z,61.82
2022-08-14T05:23:42.148Z,61.11
2022-08-14T05:26:46.707Z,58.70
2022-08-14T05:29:48.765Z,58.01
2022-08-14T05:32:50.233Z,58.61
2022-08-14T05:35:53.366Z,57.53
2022-08-14T05:38:55.412Z,57.74
2022-08-14T05:41:56.863Z,57.47
2022-08-14T05:44:58.606Z,60.19
2022-08-14T05:48:05.596Z,59.38
2022-08-14T05:51:11.012Z,58.28
2022-08-14T05:54:26.707Z,58.54
2022-08-14T05:57:28.777Z,58.37
2022-08-14T06:00:39.096Z,57.68
2022-08-14T06:03:41.194Z,58.43
2022-08-14T06:06:46.303Z,58.60
2022-08-14T06:09:52.400Z,59.05
2022-08-14T06:12:56.455Z,58.44
2022-08-14T06:15:59.063Z,58.19
2022-08-14T06:19:00.727Z,58.98
2022-08-14T06:22:02.273Z,59.24
2022-08-14T06:25:04.682Z,59.15
2022-08-14T06:28:07.529Z,58.89
2022-08-14T06:31:28.961Z,58.41
2022-08-14T06:35:11.838Z,58.19
2022-08-14T06:37:55.050Z,58.16
2022-08-14T06:40:56.463Z,57.36
2022-08-14T06:43:59.612Z,56.86
2022-08-14T06:47:04.437Z,56.78
2022-08-14T06:50:10.271Z,56.29
2022-08-14T06:53:19.737Z,56.06
2022-08-14T06:56:21.193Z,54.85
2022-08-14T06:59:23.164Z,54.01
2022-08-14T07:02:43.696Z,53.41
2022-08-14T07:05:55.382Z,52.92
2022-08-14T07:08:57.707Z,51.96
2022-08-14T07:12:00.525Z,51.54
2022-08-14T07:15:04.675Z,51.43
2022-08-14T07:18:09.019Z,50.74
2022-08-14T07:21:10.720Z,50.32
2022-08-14T07:24:22.084Z,50.10
2022-08-14T07:27:27.951Z,50.14
2022-08-14T07:30:35.920Z,49.46
2022-08-14T07:33:51.114Z,48.92
2022-08-14T07:37:00.786Z,48.78
2022-08-14T07:40:05.779Z,48.16
2022-08-14T07:43:14.057Z,48.08
2022-08-14T07:46:21.293Z,48.06
2022-08-14T07:49:31.719Z,47.81
2022-08-14T07:52:33.771Z,47.40
2022-08-14T07:55:36.704Z,46.82
2022-08-14T07:58:51.649Z,47.13
2022-08-14T08:01:57.409Z,47.09
2022-08-14T08:05:00.517Z,47.93
2022-08-14T08:08:03.779Z,47.22
2022-08-14T08:11:14.804Z,47.72
2022-08-14T08:14:18.092Z,47.57
2022-08-14T08:17:20.369Z,47.10
2022-08-14T08:20:27.442Z,45.31
2022-08-14T08:23:39.978Z,44.21
2022-08-14T08:26:42.369Z,44.25
2022-08-14T08:29:51.121Z,44.49
2022-08-14T08:32:54.812Z,44.20
2022-08-14T08:36:01.746Z,44.33
2022-08-14T08:39:18.342Z,43.56
2022-08-14T08:42:31.755Z,42.25
2022-08-14T08:45:57.330Z,40.98
2022-08-14T08:52:04.452Z,40.82
2022-08-14T08:55:06.475Z,41.30
2022-08-14T08:58:16.675Z,41.29
2022-08-14T09:01:28.375Z,40.47
2022-08-14T09:04:37.260Z,40.48
2022-08-14T09:07:47.556Z,38.84
2022-08-14T09:10:55.977Z,39.16
2022-08-14T09:13:58.027Z,38.54
2022-08-14T09:16:59.997Z,38.54
2022-08-14T09:20:05.198Z,37.65
2022-08-14T09:23:08.945Z,36.74
2022-08-14T09:26:21.517Z,35.43
2022-08-14T09:29:23.763Z,35.30
2022-08-14T09:32:58.311Z,35.93
2022-08-14T09:36:26.165Z,35.10
2022-08-14T09:39:45.780Z,34.25
2022-08-14T09:42:57.342Z,34.14
2022-08-14T09:46:02.582Z,33.39
2022-08-14T09:49:06.481Z,33.41
2022-08-14T09:52:32.930Z,32.90
2022-08-14T09:55:42.371Z,32.81
2022-08-14T09:58:45.942Z,32.20
2022-08-14T10:01:53.109Z,32.80
2022-08-14T10:05:02.270Z,31.38
2022-08-14T10:08:05.285Z,31.70
2022-08-14T10:11:19.321Z,30.94
2022-08-14T10:14:35.989Z,30.37
2022-08-14T10:17:38.947Z,29.49
2022-08-14T10:20:51.385Z,29.74
2022-08-14T10:23:53.158Z,29.31
2022-08-14T10:27:00.914Z,29.25
2022-08-14T10:30:04.602Z,28.49
2022-08-14T10:33:07.135Z,29.05
2022-08-14T10:36:08.741Z,28.40
2022-08-14T10:39:25.752Z,28.24
2022-08-14T10:42:39.512Z,28.10
2022-08-14T10:45:46.183Z,27.98
2022-08-14T10:49:04.946Z,27.82
2022-08-14T10:52:09.858Z,27.55
2022-08-14T10:55:15.993Z,27.46
2022-08-14T10:58:29.717Z,27.17
2022-08-14T11:01:41.726Z,27.21
2022-08-14T11:04:43.518Z,27.85
2022-08-14T11:07:55.409Z,27.87
2022-08-14T11:11:03.533Z,27.63
2022-08-14T11:14:07.426Z,27.17
2022-08-14T11:17:12.392Z,27.46
2022-08-14T11:20:17.278Z,27.10
2022-08-14T11:23:28.384Z,26.64
2022-08-14T11:26:40.851Z,27.50
2022-08-14T11:29:43.925Z,26.87
2022-08-14T11:32:50.007Z,27.06
2022-08-14T11:35:51.675Z,26.62
2022-08-14T11:38:55.230Z,26.83
2022-08-14T11:41:57.612Z,26.76
2022-08-14T11:45:04.675Z,26.98
2022-08-14T11:49:02.737Z,26.63
2022-08-14T11:51:54.633Z,26.86
2022-08-14T11:54:58.335Z,26.54
2022-08-14T11:58:06.604Z,26.32
2022-08-14T12:01:09.585Z,26.14
2022-08-14T12:04:32.085Z,26.14
2022-08-14T12:07:35.115Z,26.33
2022-08-14T12:10:42.461Z,26.29
2022-08-14T12:13:45.911Z,26.32
2022-08-14T12:17:11.822Z,26.52
2022-08-14T12:20:15.035Z,25.97
2022-08-14T12:23:25.045Z,25.14
2022-08-14T12:26:39.049Z,25.64
2022-08-14T12:29:53.417Z,24.99
2022-08-14T12:32:56.233Z,25.13
2022-08-14T12:36:00.493Z,25.40
2022-08-14T12:39:26.429Z,25.11
2022-08-14T12:42:36.483Z,25.28
2022-08-14T12:45:49.999Z,25.25
2022-08-14T12:48:52.083Z,25.16
2022-08-14T12:51:59.146Z,25.10
2022-08-14T12:55:21.073Z,24.85
2022-08-14T12:58:36.175Z,24.41
2022-08-14T13:02:01.905Z,24.82
2022-08-14T13:05:10.357Z,24.63
2022-08-14T13:08:33.077Z,24.13
2022-08-14T13:11:46.173Z,24.06
2022-08-14T13:14:49.661Z,23.65
2022-08-14T13:17:54.033Z,24.05
2022-08-14T13:21:01.072Z,23.89
2022-08-14T13:24:04.848Z,23.95
2022-08-14T13:27:10.949Z,23.61
2022-08-14T13:30:14.445Z,23.81
2022-08-14T13:33:25.749Z,23.74
2022-08-14T13:36:54.656Z,24.18
2022-08-14T13:39:56.283Z,24.29
2022-08-14T13:42:58.548Z,24.18
2022-08-14T13:46:01.281Z,23.68
2022-08-14T13:49:02.868Z,23.69
2022-08-14T13:52:48.003Z,23.94
2022-08-14T13:55:29.574Z,24.21
2022-08-14T13:58:35.676Z,23.07
2022-08-14T14:01:43.716Z,23.46
2022-08-14T14:04:49.463Z,23.36
2022-08-14T14:07:53.579Z,23.02
2022-08-14T14:10:55.985Z,23.02
2022-08-14T14:14:00.344Z,22.30
2022-08-14T14:17:02.800Z,22.65
2022-08-14T14:20:34.391Z,22.58
2022-08-14T14:23:35.290Z,22.64
2022-08-14T14:26:38.817Z,22.04
2022-08-14T14:29:50.544Z,22.39
2022-08-14T14:33:02.039Z,22.15
2022-08-14T14:36:07.392Z,21.94
2022-08-14T14:39:11.094Z,21.77
2022-08-14T14:42:18.328Z,21.62
2022-08-14T14:45:31.622Z,22.39
2022-08-14T14:48:44.100Z,21.62
2022-08-14T14:51:51.446Z,22.23
2022-08-14T14:54:55.862Z,22.01
2022-08-14T14:57:59.637Z,22.30
2022-08-14T15:01:03.592Z,22.21
2022-08-14T15:04:20.980Z,22.63
2022-08-14T15:07:22.704Z,21.96
2022-08-14T15:10:26.878Z,22.04
2022-08-14T15:13:33.492Z,22.38
2022-08-14T15:16:35.222Z,21.87
2022-08-14T15:19:36.915Z,22.42
2022-08-14T15:22:39.531Z,22.42
2022-08-14T15:25:53.051Z,21.99
2022-08-14T15:29:02.776Z,22.23
2022-08-14T15:32:08.697Z,22.01
2022-08-14T15:35:11.926Z,22.41
2022-08-14T15:38:17.634Z,22.37
2022-08-14T15:41:19.824Z,22.67
2022-08-14T15:44:25.859Z,22.44
2022-08-14T15:47:31.572Z,22.80
2022-08-14T15:50:34.208Z,22.42
2022-08-14T15:53:35.792Z,22.63
2022-08-14T15:56:43.252Z,22.27
2022-08-14T16:00:03.978Z,22.77
2022-08-14T16:03:12.578Z,22.27
2022-08-14T16:06:18.616Z,22.78
2022-08-14T16:09:20.617Z,22.49
2022-08-14T16:12:35.718Z,21.35
2022-08-14T16:15:45.420Z,21.17
2022-08-14T16:18:58.339Z,21.56
2022-08-14T16:22:58.580Z,21.66
2022-08-14T16:25:34.837Z,21.15
2022-08-14T16:28:37.612Z,21.23
2022-08-14T16:31:43.041Z,20.55
2022-08-14T16:34:48.482Z,21.32
2022-08-14T16:37:52.755Z,21.43
2022-08-14T16:41:17.046Z,21.85
2022-08-14T16:44:22.000Z,21.12
2022-08-14T16:47:35.070Z,21.34
2022-08-14T16:50:43.125Z,21.98
2022-08-14T16:53:47.271Z,21.39
2022-08-14T16:56:48.776Z,21.22
2022-08-14T16:59:57.221Z,21.31
2022-08-14T17:03:08.634Z,21.36
2022-08-14T17:06:33.117Z,21.65
2022-08-14T17:09:47.137Z,21.82
2022-08-14T17:12:48.716Z,21.98
2022-08-14T17:16:12.017Z,21.92
2022-08-14T17:19:40.053Z,21.98
2022-08-14T17:23:00.134Z,21.99
2022-08-14T17:26:01.705Z,22.19
2022-08-14T17:29:05.865Z,22.52
2022-08-14T17:32:22.296Z,22.39
2022-08-14T17:35:57.662Z,22.62
2022-08-14T17:39:15.508Z,22.97
2022-08-14T17:42:16.941Z,23.67
2022-08-14T17:45:41.348Z,24.00
2022-08-14T17:49:13.970Z,24.56
2022-08-14T17:52:17.128Z,24.34
2022-08-14T17:56:01.781Z,24.49
2022-08-14T17:58:41.992Z,24.72
2022-08-14T18:01:45.877Z,25.26
2022-08-14T18:04:48.620Z,25.03
2022-08-14T18:08:31.288Z,24.94
2022-08-14T18:11:17.688Z,25.21
2022-08-14T18:14:32.346Z,25.59
2022-08-14T18:17:37.505Z,25.76
2022-08-14T18:21:42.865Z,25.55
2022-08-14T18:24:01.515Z,25.66
2022-08-14T18:27:14.863Z,26.18
2022-08-14T18:30:36.437Z,25.91
2022-08-14T18:33:51.665Z,26.04
2022-08-14T18:37:03.743Z,26.62
2022-08-14T18:40:16.134Z,26.83
2022-08-14T18:43:45.419Z,27.24
2022-08-14T18:47:14.730Z,27.10
2022-08-14T18:50:27.536Z,27.11
2022-08-14T18:54:01.793Z,27.54
2022-08-14T18:57:05.555Z,28.08
2022-08-14T19:00:32.937Z,28.60
2022-08-14T19:03:36.453Z,29.04
2022-08-14T19:06:48.969Z,29.19
2022-08-14T19:10:00.520Z,30.10
2022-08-14T19:13:05.360Z,30.51
2022-08-14T19:16:22.921Z,31.29
2022-08-14T19:19:38.584Z,31.97
2022-08-14T19:22:40.989Z,33.07
2022-08-14T19:25:57.536Z,32.57
2022-08-14T19:28:59.529Z,33.51
2022-08-14T19:32:04.281Z,33.53
2022-08-14T19:35:16.633Z,34.27
2022-08-14T19:38:59.316Z,34.90
2022-08-14T19:42:00.935Z,34.81
2022-08-14T19:45:14.427Z,35.34
2022-08-14T19:48:16.164Z,35.89
2022-08-14T19:51:17.781Z,35.84
2022-08-14T19:54:29.307Z,36.10
2022-08-14T19:57:32.375Z,36.13
2022-08-14T20:00:33.982Z,36.59
2022-08-14T20:04:00.491Z,35.98
2022-08-14T20:07:06.441Z,35.89
2022-08-14T20:11:08.491Z,36.40
2022-08-14T20:14:20.628Z,35.86
2022-08-14T20:17:27.471Z,35.68
2022-08-14T20:20:31.977Z,35.66
2022-08-14T20:23:37.948Z,36.37
2022-08-14T20:26:42.301Z,36.50
2022-08-14T20:33:47.876Z,36.31
2022-08-14T20:36:50.333Z,36.19
2022-08-14T20:39:54.372Z,36.05
2022-08-14T20:43:15.412Z,36.39
2022-08-14T20:46:19.369Z,37.11
2022-08-14T20:49:28.505Z,37.21
2022-08-14T20:52:30.026Z,36.87
2022-08-14T20:55:41.482Z,36.40
2022-08-14T20:58:48.887Z,36.98
2022-08-14T21:01:59.641Z,37.17
2022-08-14T21:05:04.523Z,36.25
2022-08-14T21:08:22.326Z,36.43
2022-08-14T21:11:28.375Z,36.63
2022-08-14T21:14:29.855Z,36.93
2022-08-14T21:17:32.009Z,36.63
2022-08-14T21:20:40.339Z,36.82
2022-08-14T21:23:54.985Z,37.15
2022-08-14T21:27:04.236Z,36.55
2022-08-14T21:30:11.164Z,36.61
2022-08-14T21:33:12.672Z,36.35
2022-08-14T21:36:21.696Z,36.45
2022-08-14T21:39:24.352Z,37.14
2022-08-14T21:42:28.076Z,37.18
2022-08-14T21:45:31.826Z,37.15
2022-08-14T21:48:37.266Z,37.22
2022-08-14T21:51:53.229Z,36.81
2022-08-14T21:54:58.681Z,37.25
2022-08-14T21:58:52.016Z,38.15
2022-08-14T22:01:21.719Z,37.95
2022-08-14T22:07:36.696Z,38.64
2022-08-14T22:10:44.724Z,38.60
2022-08-14T22:13:48.933Z,39.59
2022-08-14T22:17:02.108Z,39.92
2022-08-14T22:20:16.500Z,40.44
2022-08-14T22:23:18.653Z,41.53
2022-08-14T22:26:22.005Z,41.95
2022-08-14T22:29:23.754Z,42.38
2022-08-14T22:32:34.952Z,43.45
2022-08-14T22:35:37.303Z,43.58
2022-08-14T22:38:50.051Z,43.41
2022-08-14T22:41:55.839Z,44.30
2022-08-14T22:44:58.627Z,44.30
2022-08-14T22:48:01.739Z,45.06
2022-08-14T22:51:06.492Z,45.04
2022-08-14T22:54:09.575Z,45.63
2022-08-14T22:57:37.777Z,45.48
2022-08-14T23:00:43.835Z,46.70
2022-08-14T23:03:45.988Z,47.43
2022-08-14T23:07:02.052Z,47.43
2022-08-14T23:10:33.566Z,47.28
2022-08-14T23:13:30.573Z,47.63
2022-08-14T23:16:33.709Z,47.66
2022-08-14T23:19:35.602Z,47.74
2022-08-14T23:22:37.068Z,48.33
2022-08-14T23:25:59.299Z,48.60
2022-08-14T23:29:06.916Z,48.14
2022-08-14T23:32:15.695Z,48.72
2022-08-14T23:35:26.794Z,48.73
2022-08-14T23:38:30.494Z,49.15
2022-08-14T23:41:46.427Z,49.02
2022-08-14T23:44:53.911Z,49.32
2022-08-14T23:47:55.334Z,49.41
2022-08-14T23:50:58.640Z,49.21
2022-08-14T23:54:01.538Z,49.78
2022-08-14T23:57:04.256Z,49.63
